X  Chiuso Dati meteorologici dell'aviazione (METAR)     LIML Milano Linate Airport
Temperatura
2°C Temperatura
-1°C Punto di rugiada
81% Umidità



Vento
11 KM/O
7 MPH
3 M/S
6 KTS



220°
SW
Condizioni attuali

Chiaro Chiaro
Pressione 1014.92 (hPa) - 29.97 (inHg)
Visibilità 5 (miglio) - 8 (km)
Aeroporto
Codice-Aeroporto LIML

Posizione: Milano Linate Airport
Distanza: 6 (km)

Metar:
LIML 081150Z 22006KT 8000 NSC 02/M01 Q1015 BECMG 1200 BCFG

Ore: 08-01-2022 12:50 CET